Daet, Philippines
Current Conditions -  °F | °C
As of 5:00 PM on Monday 22 Dec 2014 (Local Time) from RPLL Reporting Station
Broken Clouds Broken Clouds  
Wind Chill: 82°   Ceiling: 10000
Heat Index: 85°   Visibility: 6mi
Dew Point: 68°   Wind: 9mph
Humidity: 62%   Direction: 20°NNE
Pressure: 29.85"   Gusts: NA
Location:  14.12°N, 122.96°E
Report Text: RPLL 220900Z 02008KT 340V050 9999 SCT025 BKN100 28/20 Q1011 NOSIG RMK A2985
Loading
Personal Weather Stations






























Interactive Weather Map New forecast layout! Learn more

10-Day Weather Forecast

Advertisements
Track Severe Weather on mobile